sensor_id;sensor_type;location;lat;lon;timestamp;pressure;altitude;pressure_sealevel;temperature;humidity
18813;BME280;9534;51.140;6.296;2023-04-21T00:01:25;100447.16;;;7.16;100.00
18813;BME280;9534;51.140;6.296;2023-04-21T00:05:30;100453.16;;;7.11;100.00
18813;BME280;9534;51.140;6.296;2023-04-21T00:09:34;100463.88;;;7.13;100.00
18813;BME280;9534;51.140;6.296;2023-04-21T00:13:38;100453.81;;;7.13;100.00
18813;BME280;9534;51.140;6.296;2023-04-21T00:17:41;100456.75;;;7.12;100.00
18813;BME280;9534;51.140;6.296;2023-04-21T00:21:44;100453.44;;;7.16;100.00
18813;BME280;9534;51.140;6.296;2023-04-21T00:25:47;100445.22;;;7.10;100.00
18813;BME280;9534;51.140;6.296;2023-04-21T00:29:51;100450.53;;;7.18;100.00
18813;BME280;9534;51.140;6.296;2023-04-21T00:33:54;100440.47;;;7.18;100.00
18813;BME280;9534;51.140;6.296;2023-04-21T00:37:57;100439.44;;;7.19;100.00
18813;BME280;9534;51.140;6.296;2023-04-21T00:42:01;100431.16;;;7.27;100.00
18813;BME280;9534;51.140;6.296;2023-04-21T00:46:06;100419.63;;;7.25;100.00
18813;BME280;9534;51.140;6.296;2023-04-21T00:50:09;100418.78;;;7.25;100.00
18813;BME280;9534;51.140;6.296;2023-04-21T00:54:12;100414.56;;;7.22;100.00
18813;BME280;9534;51.140;6.296;2023-04-21T00:58:15;100421.31;;;7.26;100.00
18813;BME280;9534;51.140;6.296;2023-04-21T01:02:20;100416.25;;;7.23;100.00
18813;BME280;9534;51.140;6.296;2023-04-21T01:06:24;100412.31;;;7.26;100.00
18813;BME280;9534;51.140;6.296;2023-04-21T01:10:27;100407.03;;;7.24;100.00
18813;BME280;9534;51.140;6.296;2023-04-21T01:14:30;100408.56;;;7.27;100.00
18813;BME280;9534;51.140;6.296;2023-04-21T01:18:35;100407.91;;;7.25;100.00
18813;BME280;9534;51.140;6.296;2023-04-21T01:22:40;100408.34;;;7.28;100.00
18813;BME280;9534;51.140;6.296;2023-04-21T01:26:43;100410.03;;;7.29;100.00
18813;BME280;9534;51.140;6.296;2023-04-21T01:30:49;100404.59;;;7.29;100.00
18813;BME280;9534;51.140;6.296;2023-04-21T01:34:56;100397.47;;;7.28;100.00
18813;BME280;9534;51.140;6.296;2023-04-21T01:39:01;100400.44;;;7.33;100.00
18813;BME280;9534;51.140;6.296;2023-04-21T01:43:04;100391.63;;;7.31;100.00
18813;BME280;9534;51.140;6.296;2023-04-21T01:47:08;100396.25;;;7.31;100.00
18813;BME280;9534;51.140;6.296;2023-04-21T01:51:13;100402.13;;;7.34;100.00
18813;BME280;9534;51.140;6.296;2023-04-21T01:55:19;100395.44;;;7.36;100.00
18813;BME280;9534;51.140;6.296;2023-04-21T01:59:22;100387.91;;;7.38;100.00
18813;BME280;9534;51.140;6.296;2023-04-21T02:03:25;100389.16;;;7.36;100.00
18813;BME280;9534;51.140;6.296;2023-04-21T02:07:28;100391.50;;;7.39;100.00
18813;BME280;9534;51.140;6.296;2023-04-21T02:11:32;100389.41;;;7.41;100.00
18813;BME280;9534;51.140;6.296;2023-04-21T02:15:36;100394.22;;;7.39;100.00
18813;BME280;9534;51.140;6.296;2023-04-21T02:19:40;100386.44;;;7.36;100.00
18813;BME280;9534;51.140;6.296;2023-04-21T02:23:43;100406.97;;;7.38;100.00
18813;BME280;9534;51.140;6.296;2023-04-21T02:27:47;100402.00;;;7.42;100.00
18813;BME280;9534;51.140;6.296;2023-04-21T02:31:50;100398.03;;;7.44;100.00
18813;BME280;9534;51.140;6.296;2023-04-21T02:36:11;100388.38;;;7.42;100.00
18813;BME280;9534;51.140;6.296;2023-04-21T02:40:14;100391.34;;;7.47;100.00
18813;BME280;9534;51.140;6.296;2023-04-21T02:44:19;100389.66;;;7.46;100.00
18813;BME280;9534;51.140;6.296;2023-04-21T02:48:22;100387.72;;;7.40;100.00
18813;BME280;9534;51.140;6.296;2023-04-21T02:52:25;100374.84;;;7.28;100.00
18813;BME280;9534;51.140;6.296;2023-04-21T02:56:28;100370.50;;;7.12;100.00
18813;BME280;9534;51.140;6.296;2023-04-21T03:00:33;100377.38;;;7.08;100.00
18813;BME280;9534;51.140;6.296;2023-04-21T03:04:36;100371.34;;;6.92;100.00
18813;BME280;9534;51.140;6.296;2023-04-21T03:08:40;100370.44;;;6.85;100.00
18813;BME280;9534;51.140;6.296;2023-04-21T03:12:43;100374.25;;;6.69;100.00
18813;BME280;9534;51.140;6.296;2023-04-21T03:16:47;100369.56;;;6.63;100.00
18813;BME280;9534;51.140;6.296;2023-04-21T03:20:51;100371.38;;;6.56;100.00
18813;BME280;9534;51.140;6.296;2023-04-21T03:24:57;100373.16;;;6.49;100.00
18813;BME280;9534;51.140;6.296;2023-04-21T03:29:00;100377.56;;;6.50;100.00
18813;BME280;9534;51.140;6.296;2023-04-21T03:33:05;100374.47;;;6.53;100.00
18813;BME280;9534;51.140;6.296;2023-04-21T03:37:08;100386.16;;;6.54;100.00
18813;BME280;9534;51.140;6.296;2023-04-21T03:41:12;100381.09;;;6.51;100.00
18813;BME280;9534;51.140;6.296;2023-04-21T03:45:15;100378.97;;;6.46;100.00
18813;BME280;9534;51.140;6.296;2023-04-21T03:49:21;100379.84;;;6.47;100.00
18813;BME280;9534;51.140;6.296;2023-04-21T03:53:24;100372.25;;;6.42;100.00
18813;BME280;9534;51.140;6.296;2023-04-21T03:57:27;100369.19;;;6.31;100.00
18813;BME280;9534;51.140;6.296;2023-04-21T04:01:30;100379.38;;;6.14;100.00
18813;BME280;9534;51.140;6.296;2023-04-21T04:05:35;100382.75;;;6.16;100.00
18813;BME280;9534;51.140;6.296;2023-04-21T04:09:38;100386.22;;;6.11;100.00
18813;BME280;9534;51.140;6.296;2023-04-21T04:13:41;100391.66;;;6.25;100.00
18813;BME280;9534;51.140;6.296;2023-04-21T04:17:44;100386.50;;;6.15;100.00
18813;BME280;9534;51.140;6.296;2023-04-21T04:21:48;100389.72;;;6.05;100.00
18813;BME280;9534;51.140;6.296;2023-04-21T04:25:51;100385.19;;;6.12;100.00
18813;BME280;9534;51.140;6.296;2023-04-21T04:29:54;100373.94;;;6.14;100.00
18813;BME280;9534;51.140;6.296;2023-04-21T04:33:58;100382.75;;;6.16;100.00
18813;BME280;9534;51.140;6.296;2023-04-21T04:38:02;100380.31;;;6.21;100.00
18813;BME280;9534;51.140;6.296;2023-04-21T04:42:05;100390.16;;;6.22;100.00
18813;BME280;9534;51.140;6.296;2023-04-21T04:46:10;100391.56;;;6.33;100.00
18813;BME280;9534;51.140;6.296;2023-04-21T04:50:14;100395.41;;;6.24;100.00
18813;BME280;9534;51.140;6.296;2023-04-21T04:54:18;100394.19;;;6.26;100.00
18813;BME280;9534;51.140;6.296;2023-04-21T04:58:21;100387.44;;;6.22;100.00
18813;BME280;9534;51.140;6.296;2023-04-21T05:02:25;100388.28;;;6.23;100.00
18813;BME280;9534;51.140;6.296;2023-04-21T05:06:28;100396.25;;;6.24;100.00
18813;BME280;9534;51.140;6.296;2023-04-21T05:10:32;100397.00;;;6.18;100.00
18813;BME280;9534;51.140;6.296;2023-04-21T05:14:35;100397.00;;;6.18;100.00
18813;BME280;9534;51.140;6.296;2023-04-21T05:18:38;100396.63;;;6.21;100.00
18813;BME280;9534;51.140;6.296;2023-04-21T05:22:41;100400.53;;;6.33;100.00
18813;BME280;9534;51.140;6.296;2023-04-21T05:26:46;100394.75;;;6.36;100.00
18813;BME280;9534;51.140;6.296;2023-04-21T05:30:49;100390.72;;;6.32;100.00
18813;BME280;9534;51.140;6.296;2023-04-21T05:34:52;100409.72;;;6.32;100.00
18813;BME280;9534;51.140;6.296;2023-04-21T05:38:55;100402.53;;;6.25;100.00
18813;BME280;9534;51.140;6.296;2023-04-21T05:43:00;100408.41;;;6.28;100.00
18813;BME280;9534;51.140;6.296;2023-04-21T05:47:03;100399.72;;;6.33;100.00
18813;BME280;9534;51.140;6.296;2023-04-21T05:51:07;100399.34;;;6.36;100.00
18813;BME280;9534;51.140;6.296;2023-04-21T05:55:10;100408.13;;;6.52;100.00
18813;BME280;9534;51.140;6.296;2023-04-21T05:59:14;100413.06;;;6.63;100.00
18813;BME280;9534;51.140;6.296;2023-04-21T06:03:17;100419.72;;;6.75;100.00
18813;BME280;9534;51.140;6.296;2023-04-21T06:07:20;100406.38;;;6.80;100.00
18813;BME280;9534;51.140;6.296;2023-04-21T06:11:23;100410.09;;;6.94;100.00
18813;BME280;9534;51.140;6.296;2023-04-21T06:15:28;100401.81;;;7.02;100.00
18813;BME280;9534;51.140;6.296;2023-04-21T06:19:35;100397.31;;;7.15;100.00
18813;BME280;9534;51.140;6.296;2023-04-21T06:23:38;100404.97;;;7.26;100.00
18813;BME280;9534;51.140;6.296;2023-04-21T06:27:41;100400.06;;;7.36;100.00
18813;BME280;9534;51.140;6.296;2023-04-21T06:31:47;100408.47;;;7.41;100.00
18813;BME280;9534;51.140;6.296;2023-04-21T06:35:50;100403.78;;;7.56;100.00
18813;BME280;9534;51.140;6.296;2023-04-21T06:39:53;100404.72;;;7.69;100.00
18813;BME280;9534;51.140;6.296;2023-04-21T06:43:56;100422.25;;;7.88;100.00
18813;BME280;9534;51.140;6.296;2023-04-21T06:48:01;100408.09;;;7.99;100.00
18813;BME280;9534;51.140;6.296;2023-04-21T06:52:04;100412.41;;;8.14;100.00
18813;BME280;9534;51.140;6.296;2023-04-21T06:56:07;100402.69;;;8.33;100.00
18813;BME280;9534;51.140;6.296;2023-04-21T07:00:10;100396.31;;;8.60;100.00
18813;BME280;9534;51.140;6.296;2023-04-21T07:04:15;100389.38;;;8.57;100.00
18813;BME280;9534;51.140;6.296;2023-04-21T07:08:18;100390.88;;;8.60;100.00
18813;BME280;9534;51.140;6.296;2023-04-21T07:12:21;100385.88;;;8.76;100.00
18813;BME280;9534;51.140;6.296;2023-04-21T07:16:24;100371.25;;;8.90;100.00
18813;BME280;9534;51.140;6.296;2023-04-21T07:20:29;100370.41;;;9.09;100.00
18813;BME280;9534;51.140;6.296;2023-04-21T07:24:31;100355.78;;;9.29;100.00
18813;BME280;9534;51.140;6.296;2023-04-21T07:28:36;100349.47;;;9.22;100.00
18813;BME280;9534;51.140;6.296;2023-04-21T07:32:39;100337.28;;;9.38;100.00
18813;BME280;9534;51.140;6.296;2023-04-21T07:36:43;100330.13;;;9.56;100.00
18813;BME280;9534;51.140;6.296;2023-04-21T07:40:47;100313.72;;;9.82;100.00
18813;BME280;9534;51.140;6.296;2023-04-21T07:44:49;100311.16;;;10.00;100.00
18813;BME280;9534;51.140;6.296;2023-04-21T07:48:53;100308.38;;;10.26;100.00
18813;BME280;9534;51.140;6.296;2023-04-21T07:52:58;100285.34;;;10.40;100.00
18813;BME280;9534;51.140;6.296;2023-04-21T07:57:02;100268.31;;;10.75;100.00
18813;BME280;9534;51.140;6.296;2023-04-21T08:01:05;100253.44;;;11.44;100.00
18813;BME280;9534;51.140;6.296;2023-04-21T08:05:08;100249.72;;;12.17;100.00
18813;BME280;9534;51.140;6.296;2023-04-21T08:09:13;100242.47;;;12.23;100.00
18813;BME280;9534;51.140;6.296;2023-04-21T08:13:16;100237.63;;;12.95;100.00
18813;BME280;9534;51.140;6.296;2023-04-21T08:17:21;100240.41;;;12.36;100.00
18813;BME280;9534;51.140;6.296;2023-04-21T08:21:24;100242.88;;;12.85;100.00
18813;BME280;9534;51.140;6.296;2023-04-21T08:25:28;100253.31;;;12.00;100.00
18813;BME280;9534;51.140;6.296;2023-04-21T08:29:31;100243.72;;;12.97;100.00
18813;BME280;9534;51.140;6.296;2023-04-21T08:33:34;100231.00;;;13.14;100.00
18813;BME280;9534;51.140;6.296;2023-04-21T08:37:50;100230.47;;;12.94;100.00
18813;BME280;9534;51.140;6.296;2023-04-21T08:41:55;100237.44;;;13.08;100.00
18813;BME280;9534;51.140;6.296;2023-04-21T08:46:00;100227.19;;;13.03;100.00
18813;BME280;9534;51.140;6.296;2023-04-21T08:50:04;100233.44;;;13.45;100.00
18813;BME280;9534;51.140;6.296;2023-04-21T08:54:09;100230.28;;;13.98;100.00
18813;BME280;9534;51.140;6.296;2023-04-21T08:58:13;100228.56;;;14.32;100.00
18813;BME280;9534;51.140;6.296;2023-04-21T09:02:17;100232.25;;;14.65;100.00
18813;BME280;9534;51.140;6.296;2023-04-21T09:06:38;100228.00;;;14.07;100.00
18813;BME280;9534;51.140;6.296;2023-04-21T09:10:44;100233.19;;;14.43;100.00
18813;BME280;9534;51.140;6.296;2023-04-21T09:14:49;100232.06;;;14.55;100.00
18813;BME280;9534;51.140;6.296;2023-04-21T09:18:52;100240.81;;;13.78;100.00
18813;BME280;9534;51.140;6.296;2023-04-21T09:22:55;100236.31;;;14.46;100.00
18813;BME280;9534;51.140;6.296;2023-04-21T09:26:58;100237.63;;;14.44;100.00
18813;BME280;9534;51.140;6.296;2023-04-21T09:31:05;100235.22;;;14.47;100.00
18813;BME280;9534;51.140;6.296;2023-04-21T09:35:14;100232.78;;;15.23;100.00
18813;BME280;9534;51.140;6.296;2023-04-21T09:39:18;100242.31;;;15.81;100.00
18813;BME280;9534;51.140;6.296;2023-04-21T09:43:43;100243.56;;;15.74;100.00
18813;BME280;9534;51.140;6.296;2023-04-21T09:47:48;100220.38;;;15.37;100.00
18813;BME280;9534;51.140;6.296;2023-04-21T09:51:52;100230.53;;;15.53;100.00
18813;BME280;9534;51.140;6.296;2023-04-21T09:55:58;100231.84;;;16.42;100.00
18813;BME280;9534;51.140;6.296;2023-04-21T10:00:02;100217.28;;;17.00;100.00
18813;BME280;9534;51.140;6.296;2023-04-21T10:04:08;100234.63;;;15.67;100.00
18813;BME280;9534;51.140;6.296;2023-04-21T10:08:11;100213.25;;;14.80;100.00
18813;BME280;9534;51.140;6.296;2023-04-21T10:12:15;100210.88;;;15.00;100.00
18813;BME280;9534;51.140;6.296;2023-04-21T10:16:19;100213.50;;;16.15;100.00
18813;BME280;9534;51.140;6.296;2023-04-21T10:20:25;100206.97;;;16.21;100.00
18813;BME280;9534;51.140;6.296;2023-04-21T10:24:28;100204.25;;;16.95;100.00
18813;BME280;9534;51.140;6.296;2023-04-21T10:28:44;100211.00;;;16.56;100.00
18813;BME280;9534;51.140;6.296;2023-04-21T10:32:48;100182.69;;;16.66;100.00
18813;BME280;9534;51.140;6.296;2023-04-21T10:37:08;100191.22;;;16.64;100.00
18813;BME280;9534;51.140;6.296;2023-04-21T10:41:24;100183.28;;;16.46;100.00
18813;BME280;9534;51.140;6.296;2023-04-21T10:45:28;100181.41;;;16.78;100.00
18813;BME280;9534;51.140;6.296;2023-04-21T10:49:32;100181.59;;;17.61;100.00
18813;BME280;9534;51.140;6.296;2023-04-21T10:53:43;100175.66;;;17.16;100.00
18813;BME280;9534;51.140;6.296;2023-04-21T10:57:46;100153.31;;;16.86;100.00
18813;BME280;9534;51.140;6.296;2023-04-21T11:01:50;100154.06;;;17.08;100.00
18813;BME280;9534;51.140;6.296;2023-04-21T11:05:53;100160.44;;;17.45;100.00
18813;BME280;9534;51.140;6.296;2023-04-21T11:09:58;100140.44;;;16.70;100.00
18813;BME280;9534;51.140;6.296;2023-04-21T11:14:02;100149.28;;;16.72;100.00
18813;BME280;9534;51.140;6.296;2023-04-21T11:18:05;100143.09;;;16.60;100.00
18813;BME280;9534;51.140;6.296;2023-04-21T11:22:09;100131.66;;;16.78;100.00
18813;BME280;9534;51.140;6.296;2023-04-21T11:26:13;100129.34;;;16.17;100.00
18813;BME280;9534;51.140;6.296;2023-04-21T11:30:16;100125.81;;;17.84;100.00
18813;BME280;9534;51.140;6.296;2023-04-21T11:34:19;100122.25;;;17.42;100.00
18813;BME280;9534;51.140;6.296;2023-04-21T11:38:23;100110.88;;;17.38;100.00
18813;BME280;9534;51.140;6.296;2023-04-21T11:42:27;100103.88;;;18.44;100.00
18813;BME280;9534;51.140;6.296;2023-04-21T11:46:30;100085.38;;;17.78;100.00
18813;BME280;9534;51.140;6.296;2023-04-21T11:50:34;100100.91;;;19.20;100.00
18813;BME280;9534;51.140;6.296;2023-04-21T11:54:39;100090.34;;;19.12;100.00
18813;BME280;9534;51.140;6.296;2023-04-21T11:58:43;100088.69;;;19.21;100.00
18813;BME280;9534;51.140;6.296;2023-04-21T12:02:52;100084.53;;;18.68;100.00
18813;BME280;9534;51.140;6.296;2023-04-21T12:06:56;100090.91;;;18.69;100.00
18813;BME280;9534;51.140;6.296;2023-04-21T12:11:01;100073.09;;;17.59;100.00
18813;BME280;9534;51.140;6.296;2023-04-21T12:15:06;100061.50;;;17.62;100.00
18813;BME280;9534;51.140;6.296;2023-04-21T12:19:09;100065.81;;;18.04;100.00
18813;BME280;9534;51.140;6.296;2023-04-21T12:23:12;100063.75;;;17.70;100.00
18813;BME280;9534;51.140;6.296;2023-04-21T12:27:15;100055.13;;;17.66;100.00
18813;BME280;9534;51.140;6.296;2023-04-21T12:31:21;100049.09;;;17.28;100.00
18813;BME280;9534;51.140;6.296;2023-04-21T12:35:24;100038.09;;;17.99;100.00
18813;BME280;9534;51.140;6.296;2023-04-21T12:39:27;100041.19;;;19.52;100.00
18813;BME280;9534;51.140;6.296;2023-04-21T12:43:31;100043.47;;;18.80;100.00
18813;BME280;9534;51.140;6.296;2023-04-21T12:47:36;100043.44;;;19.45;100.00
18813;BME280;9534;51.140;6.296;2023-04-21T12:51:40;100039.25;;;19.43;100.00
18813;BME280;9534;51.140;6.296;2023-04-21T12:55:43;100032.13;;;18.82;100.00
18813;BME280;9534;51.140;6.296;2023-04-21T13:00:05;100030.09;;;18.13;100.00
18813;BME280;9534;51.140;6.296;2023-04-21T13:04:10;100025.19;;;19.92;100.00
18813;BME280;9534;51.140;6.296;2023-04-21T13:08:14;100028.19;;;20.01;100.00
18813;BME280;9534;51.140;6.296;2023-04-21T13:12:16;100024.94;;;19.79;100.00
18813;BME280;9534;51.140;6.296;2023-04-21T13:16:19;100022.22;;;20.27;100.00
18813;BME280;9534;51.140;6.296;2023-04-21T13:20:24;100021.00;;;19.90;100.00
18813;BME280;9534;51.140;6.296;2023-04-21T13:24:27;100017.94;;;20.45;100.00
18813;BME280;9534;51.140;6.296;2023-04-21T13:28:30;100014.75;;;20.23;100.00
18813;BME280;9534;51.140;6.296;2023-04-21T13:32:33;100003.59;;;21.46;100.00
18813;BME280;9534;51.140;6.296;2023-04-21T13:36:38;99997.25;;;20.56;100.00
18813;BME280;9534;51.140;6.296;2023-04-21T13:40:41;99993.66;;;20.17;100.00
18813;BME280;9534;51.140;6.296;2023-04-21T13:44:46;99985.81;;;20.96;100.00
18813;BME280;9534;51.140;6.296;2023-04-21T13:48:49;99979.97;;;20.59;100.00
18813;BME280;9534;51.140;6.296;2023-04-21T13:52:53;99965.50;;;19.85;100.00
18813;BME280;9534;51.140;6.296;2023-04-21T13:56:56;99964.47;;;19.66;100.00
18813;BME280;9534;51.140;6.296;2023-04-21T14:00:59;99958.19;;;19.99;100.00
18813;BME280;9534;51.140;6.296;2023-04-21T14:05:02;99940.69;;;20.42;100.00
18813;BME280;9534;51.140;6.296;2023-04-21T14:09:07;99950.47;;;19.91;100.00
18813;BME280;9534;51.140;6.296;2023-04-21T14:13:11;99934.66;;;19.38;100.00
18813;BME280;9534;51.140;6.296;2023-04-21T14:17:34;99936.97;;;18.96;100.00
18813;BME280;9534;51.140;6.296;2023-04-21T14:21:37;99932.03;;;18.83;100.00
18813;BME280;9534;51.140;6.296;2023-04-21T14:25:41;99924.59;;;18.34;100.00
18813;BME280;9534;51.140;6.296;2023-04-21T14:29:44;99924.84;;;18.08;100.00
18813;BME280;9534;51.140;6.296;2023-04-21T14:33:47;99918.22;;;18.09;100.00
18813;BME280;9534;51.140;6.296;2023-04-21T14:37:50;99918.81;;;18.36;100.00
18813;BME280;9534;51.140;6.296;2023-04-21T14:41:57;99920.44;;;18.57;100.00
18813;BME280;9534;51.140;6.296;2023-04-21T14:46:00;99914.22;;;20.16;100.00
18813;BME280;9534;51.140;6.296;2023-04-21T14:50:04;99902.56;;;20.99;100.00
18813;BME280;9534;51.140;6.296;2023-04-21T14:54:09;99905.41;;;20.66;100.00
18813;BME280;9534;51.140;6.296;2023-04-21T14:58:13;99901.22;;;18.95;100.00
18813;BME280;9534;51.140;6.296;2023-04-21T15:02:16;99886.06;;;18.63;100.00
18813;BME280;9534;51.140;6.296;2023-04-21T15:06:20;99886.63;;;18.10;100.00
18813;BME280;9534;51.140;6.296;2023-04-21T15:10:23;99875.91;;;19.16;100.00
18813;BME280;9534;51.140;6.296;2023-04-21T15:14:27;99873.19;;;18.96;100.00
18813;BME280;9534;51.140;6.296;2023-04-21T15:18:30;99868.56;;;18.77;100.00
18813;BME280;9534;51.140;6.296;2023-04-21T15:22:34;99859.50;;;18.17;100.00
18813;BME280;9534;51.140;6.296;2023-04-21T15:26:37;99854.53;;;17.79;100.00
18813;BME280;9534;51.140;6.296;2023-04-21T15:30:42;99857.81;;;17.56;100.00
18813;BME280;9534;51.140;6.296;2023-04-21T15:34:45;99842.88;;;17.52;100.00
18813;BME280;9534;51.140;6.296;2023-04-21T15:38:48;99841.66;;;17.23;100.00
18813;BME280;9534;51.140;6.296;2023-04-21T15:42:51;99840.31;;;17.35;100.00
18813;BME280;9534;51.140;6.296;2023-04-21T15:46:55;99838.72;;;17.44;100.00
18813;BME280;9534;51.140;6.296;2023-04-21T15:50:58;99832.28;;;17.34;100.00
18813;BME280;9534;51.140;6.296;2023-04-21T15:55:02;99831.66;;;16.97;100.00
18813;BME280;9534;51.140;6.296;2023-04-21T15:59:05;99825.69;;;16.69;100.00
18813;BME280;9534;51.140;6.296;2023-04-21T16:03:10;99826.56;;;16.74;100.00
18813;BME280;9534;51.140;6.296;2023-04-21T16:07:13;99856.22;;;16.42;100.00
18813;BME280;9534;51.140;6.296;2023-04-21T16:11:16;99938.81;;;13.20;100.00
18813;BME280;9534;51.140;6.296;2023-04-21T16:15:19;99884.91;;;11.12;100.00
18813;BME280;9534;51.140;6.296;2023-04-21T16:19:27;99893.13;;;11.12;100.00
18813;BME280;9534;51.140;6.296;2023-04-21T16:23:30;99880.13;;;10.90;100.00
18813;BME280;9534;51.140;6.296;2023-04-21T16:27:32;99874.75;;;10.84;100.00
18813;BME280;9534;51.140;6.296;2023-04-21T16:31:36;99895.19;;;10.81;100.00
18813;BME280;9534;51.140;6.296;2023-04-21T16:35:40;99923.13;;;10.72;100.00
18813;BME280;9534;51.140;6.296;2023-04-21T16:39:44;99913.94;;;10.66;100.00
18813;BME280;9534;51.140;6.296;2023-04-21T16:43:47;99923.13;;;10.72;100.00
18813;BME280;9534;51.140;6.296;2023-04-21T16:47:50;99915.06;;;10.77;100.00
18813;BME280;9534;51.140;6.296;2023-04-21T16:51:54;99921.91;;;10.86;100.00
18813;BME280;9534;51.140;6.296;2023-04-21T16:55:57;99923.09;;;11.08;100.00
18813;BME280;9534;51.140;6.296;2023-04-21T17:00:00;99919.00;;;11.57;100.00
18813;BME280;9534;51.140;6.296;2023-04-21T17:04:07;99915.78;;;12.47;100.00
18813;BME280;9534;51.140;6.296;2023-04-21T17:08:16;99882.66;;;13.27;100.00
18813;BME280;9534;51.140;6.296;2023-04-21T17:12:19;99845.97;;;14.15;100.00
18813;BME280;9534;51.140;6.296;2023-04-21T17:16:22;99809.59;;;14.13;100.00
18813;BME280;9534;51.140;6.296;2023-04-21T17:20:25;99780.94;;;14.09;100.00
18813;BME280;9534;51.140;6.296;2023-04-21T17:24:29;99774.81;;;15.14;100.00
18813;BME280;9534;51.140;6.296;2023-04-21T17:28:52;99778.03;;;15.96;100.00
18813;BME280;9534;51.140;6.296;2023-04-21T17:32:55;99778.06;;;15.33;100.00
18813;BME280;9534;51.140;6.296;2023-04-21T17:37:17;99765.25;;;15.85;100.00
18813;BME280;9534;51.140;6.296;2023-04-21T17:41:21;99760.50;;;16.16;100.00
18813;BME280;9534;51.140;6.296;2023-04-21T17:45:24;99771.25;;;16.64;100.00
18813;BME280;9534;51.140;6.296;2023-04-21T17:49:27;99760.00;;;15.78;100.00
18813;BME280;9534;51.140;6.296;2023-04-21T17:53:30;99764.97;;;16.27;100.00
18813;BME280;9534;51.140;6.296;2023-04-21T17:57:34;99762.38;;;15.70;100.00
18813;BME280;9534;51.140;6.296;2023-04-21T18:01:37;99771.72;;;14.37;100.00
18813;BME280;9534;51.140;6.296;2023-04-21T18:05:41;99760.91;;;14.30;100.00
18813;BME280;9534;51.140;6.296;2023-04-21T18:09:43;99760.66;;;15.32;100.00
18813;BME280;9534;51.140;6.296;2023-04-21T18:13:50;99763.47;;;15.69;100.00
18813;BME280;9534;51.140;6.296;2023-04-21T18:17:53;99765.56;;;14.99;100.00
18813;BME280;9534;51.140;6.296;2023-04-21T18:21:56;99782.06;;;14.30;100.00
18813;BME280;9534;51.140;6.296;2023-04-21T18:25:59;99808.09;;;14.22;100.00
18813;BME280;9534;51.140;6.296;2023-04-21T18:30:05;99819.63;;;13.86;100.00
18813;BME280;9534;51.140;6.296;2023-04-21T18:34:09;99832.81;;;13.84;100.00
18813;BME280;9534;51.140;6.296;2023-04-21T18:38:12;99845.97;;;13.50;100.00
18813;BME280;9534;51.140;6.296;2023-04-21T18:42:15;99856.88;;;13.17;100.00
18813;BME280;9534;51.140;6.296;2023-04-21T18:46:20;99843.59;;;12.86;100.00
18813;BME280;9534;51.140;6.296;2023-04-21T18:50:25;99849.53;;;13.06;100.00
18813;BME280;9534;51.140;6.296;2023-04-21T18:54:29;99806.13;;;13.19;100.00
18813;BME280;9534;51.140;6.296;2023-04-21T18:58:32;99797.13;;;13.24;100.00
18813;BME280;9534;51.140;6.296;2023-04-21T19:02:36;99823.09;;;13.60;100.00
18813;BME280;9534;51.140;6.296;2023-04-21T19:06:40;99863.38;;;13.11;100.00
18813;BME280;9534;51.140;6.296;2023-04-21T19:10:43;99884.88;;;12.51;100.00
18813;BME280;9534;51.140;6.296;2023-04-21T19:14:46;99914.94;;;12.01;100.00
18813;BME280;9534;51.140;6.296;2023-04-21T19:18:51;99929.06;;;11.75;100.00
18813;BME280;9534;51.140;6.296;2023-04-21T19:22:54;99912.16;;;11.66;100.00
18813;BME280;9534;51.140;6.296;2023-04-21T19:26:57;99900.41;;;11.59;100.00
18813;BME280;9534;51.140;6.296;2023-04-21T19:31:02;99901.06;;;11.43;100.00
18813;BME280;9534;51.140;6.296;2023-04-21T19:35:07;99904.94;;;11.24;100.00
18813;BME280;9534;51.140;6.296;2023-04-21T19:39:10;99895.16;;;11.17;100.00
18813;BME280;9534;51.140;6.296;2023-04-21T19:43:13;99897.66;;;11.18;100.00
18813;BME280;9534;51.140;6.296;2023-04-21T19:47:16;99905.91;;;11.01;100.00
18813;BME280;9534;51.140;6.296;2023-04-21T19:51:21;99898.47;;;10.90;100.00
18813;BME280;9534;51.140;6.296;2023-04-21T19:55:24;99906.09;;;10.88;100.00
18813;BME280;9534;51.140;6.296;2023-04-21T19:59:27;99886.47;;;10.73;100.00
18813;BME280;9534;51.140;6.296;2023-04-21T20:03:31;99901.69;;;10.69;100.00
18813;BME280;9534;51.140;6.296;2023-04-21T20:07:36;99921.94;;;10.97;100.00
18813;BME280;9534;51.140;6.296;2023-04-21T20:11:40;99934.22;;;10.95;100.00
18813;BME280;9534;51.140;6.296;2023-04-21T20:15:43;99948.22;;;10.87;100.00
18813;BME280;9534;51.140;6.296;2023-04-21T20:19:46;99957.47;;;10.86;100.00
18813;BME280;9534;51.140;6.296;2023-04-21T20:23:51;99963.78;;;10.86;100.00
18813;BME280;9534;51.140;6.296;2023-04-21T20:27:54;99946.84;;;10.78;100.00
18813;BME280;9534;51.140;6.296;2023-04-21T20:31:57;99934.06;;;10.72;100.00
18813;BME280;9534;51.140;6.296;2023-04-21T20:36:00;99930.25;;;10.73;100.00
18813;BME280;9534;51.140;6.296;2023-04-21T20:40:09;99931.19;;;10.85;100.00
18813;BME280;9534;51.140;6.296;2023-04-21T20:44:13;99921.44;;;10.71;100.00
18813;BME280;9534;51.140;6.296;2023-04-21T20:48:17;99915.97;;;10.53;100.00
18813;BME280;9534;51.140;6.296;2023-04-21T20:52:20;99910.03;;;10.56;100.00
18813;BME280;9534;51.140;6.296;2023-04-21T20:56:31;99914.91;;;10.54;100.00
18813;BME280;9534;51.140;6.296;2023-04-21T21:00:34;99905.84;;;10.35;100.00
18813;BME280;9534;51.140;6.296;2023-04-21T21:04:37;99892.16;;;10.17;100.00
18813;BME280;9534;51.140;6.296;2023-04-21T21:08:42;99888.69;;;10.04;100.00
18813;BME280;9534;51.140;6.296;2023-04-21T21:12:46;99902.47;;;9.91;100.00
18813;BME280;9534;51.140;6.296;2023-04-21T21:16:49;99908.50;;;9.75;100.00
18813;BME280;9534;51.140;6.296;2023-04-21T21:20:57;99903.13;;;9.62;100.00
18813;BME280;9534;51.140;6.296;2023-04-21T21:25:00;99918.19;;;9.47;100.00
18813;BME280;9534;51.140;6.296;2023-04-21T21:29:04;99912.22;;;9.25;100.00